Timber Mountain, Nevada Weather observations

Data are for 10 minute period ending at time listed.
 Day   Time   Solar   Ave.   Ave.  Ave.  Vector  Max.   Baro.   Total    
  of    of     Rad.   Air    Rel.  Wind   Wind   Wind  Press.  Precip.   
Year   Day            Temp.  Hum.  Speed  Dir.   Gust                    
2016   (PST)  Kw/m2    F      %     mph   deg.    mph    mb.     in.     
-------------------------------------------------------------------------
 338   15:00   0.34   45.9    21    8.3   352    15.6   814.2    0.00 
 338   16:00   0.17   44.2    24   10.3     7    20.8   814.6    0.00 
 338   17:00   0.01   41.3    29    9.0    12    21.8   814.6    0.00 
 338   18:00   0.00   39.7    33    8.0     8    18.1   814.8    0.00 
 338   19:00   0.00   39.9    33    9.4    19    20.8   814.9    0.00 
 338   20:00   0.00   39.6    33    9.6    14    18.6   815.0    0.00 
 338   21:00   0.00   37.8    35    4.1   350    11.7   815.1    0.00 
 338   22:00   0.00   37.7    34    5.0   336    13.9   815.1    0.00 
 338   23:00   0.00   39.3    28    5.6   355    17.4   815.2    0.00 
 339    0:00   0.00   41.1    23    8.6     3    19.5   815.2    0.00 
 339    1:00   0.00   42.3    19   10.6    12    21.7   814.7    0.00 
 339    2:00   0.00   40.4    21    3.9   162    11.1   814.5    0.00 
 339    3:00   0.00   36.6    24    1.9   137     4.7   814.4    0.00 
 339    4:00   0.00   38.1    22    3.2    90     8.0   813.8    0.00 
 339    5:00   0.00   37.3    24    2.3   120     5.0   813.5    0.00 
 339    6:00   0.00   36.3    27    3.6   109     7.2   813.4    0.00 
 339    7:00   0.00   36.0    27    3.3   108     6.4   813.4    0.00 
 339    8:00   0.09   41.1    22    2.7   105     4.8   813.7    0.00 
 339    9:00   0.28   51.6    14    1.5   215     4.0   814.0    0.00 
 339   10:00   0.42   57.1    12    2.7   232     5.0   814.1    0.00 
 339   11:00   0.52   58.7    13    3.4   258     9.7   813.5    0.00 
 339   12:00   0.57   58.3    13    5.6   253    11.0   812.7    0.00 
 339   13:00   0.54   57.6    14    6.2   235     9.9   811.8    0.00 
 339   14:00   0.44   56.2    15    6.2   284    11.2   811.2    0.00 

Return to Timber Mountain graphs page.


Western Regional Climate Center,wrcc@dri.edu